Tiempo atmosférico en la estación meteorológica de Candeleda, Ávila (350 m.)

Fecha
DESCASC
Temp. máxima en grados centígrados (hora)
DESCASC
Temp. mínima en grados centígrados (hora)
DESCASC
Temp. media en grados centígrados
DESCASC
Racha de viento máxima en m/sg (hora)
DESCASC
Velocidad máxima media en intervalos de 10 minutos(hora)
DESCASC
Precipitaciones diarias en mm
DESCASC
Precipitaciones de 00:00 a 06:00 en mm
DESCASC
Precipitaciones de 06:00 a 12:00 en mm
DESCASC
Precipitaciones de 12:00 a 18:00 en mm
DESCASC
Precipitaciones de 18:00 a 24:00 en mm
DESCASC
21-09-2017 30.5 (16:00) 12.4 (08:10) 21.4 7.22 (16:30) 4.17 (16:20) 0 0 0 0 0
20-09-2017 31.2 (17:40) 11.9 (08:20) 21.6 5.28 (18:30) 2.78 (18:30) 0 0 0 0 0
19-09-2017 29.2 (17:40) 11.3 (08:30) 20.3 5.56 (14:00) 3.06 (16:00) 0 0 0 0 0
18-09-2017 27.1 (16:00) 9.1 (06:10) 18.1 9.17 (16:30) 5.56 (16:30) 0 0 0 0 0
17-09-2017 26.6 (17:40) 8.6 (00:00) 17.6 10.83 (16:40) 5 (18:10) 0 0 0 0 0
16-09-2017 25 (16:40) 11.5 (00:00) 18.3 8.06 (03:40) 4.72 (16:50) 0 0 0 0 0
15-09-2017 27.4 (17:40) 13.8 (00:00) 20.6 10.56 (19:50) 6.67 (19:30) 0 0 0 0 0
14-09-2017 32.6 (18:10) 13 (00:00) 22.8 10.28 (23:40) 7.22 (23:40) 0 0 0 0 0
13-09-2017 33.8 (17:00) 14.8 (00:00) 24.3 6.11 (15:40) 3.33 (18:20) 0 0 0 0 0
12-09-2017 31.2 (16:50) 14.1 (00:00) 22.7 6.94 (15:50) 3.33 (02:30) 0 0 0 0 0
11-09-2017 33.3 (16:40) 12.4 (00:00) 22.8 11.67 (23:20) 6.11 (19:30) 0 0 0 0 0
10-09-2017 27.4 (18:20) 11.3 (00:00) 19.3 15.83 (00:10) 10 (00:10) 0 0 0 0 0
09-09-2017 27.1 (15:00) 15 (00:00) 21.1 18.61 (23:30) 11.67 (23:40) 0 0 0 0 0
08-09-2017 33.2 (17:30) 13.5 (00:00) 23.4 7.78 (17:50) 5 (16:50) 0 0 0 0 0
07-09-2017 34.3 (16:20) 18.1 (00:00) 26.2 5 (17:20) 2.5 (16:50) 0 0 0 0 0
06-09-2017 35.7 (16:40) 18.7 (00:00) 27.2 8.06 (20:10) 5 (20:10) 0 0 0 0 0
05-09-2017 34.3 (17:20) 16.3 (00:00) 25.3 6.11 (15:40) 3.61 (15:40) 0 0 0 0 0
04-09-2017 32.2 (19:30) 13.1 (00:00) 22.7 5.83 (10:40) 3.61 (10:30) 0 0 0 0 0
03-09-2017 33.9 (16:30) 15.6 (00:00) 24.8 13.06 (16:40) 6.39 (16:40) 0 0 0 0 0
02-09-2017 31.1 (19:00) 14.7 (00:00) 22.9 6.67 (11:00) 4.44 (11:00) 0 0 0 0 0
01-09-2017 31.9 (18:30) 17 (00:00) 24.4 6.39 (15:00) 3.33 (14:50) 0 0 0 0 0
31-08-2017 30.8 (16:50) 17.1 (00:00) 23.9 6.67 (16:10) 3.89 (15:40) 0 0 0 0 0
30-08-2017 28.2 (18:10) 13.6 (00:00) 20.9 6.94 (17:20) 4.17 (18:00) 0 0 0 0 0
29-08-2017 25.7 (14:40) 14.5 (00:00) 20.1 9.72 (01:10) 6.11 (00:10) 0.8 0.6 0 0.2 0
28-08-2017 26.6 (14:00) 19.3 (00:00) 22.9 10.56 (16:30) 6.94 (15:00) 0 0 0 0 0
27-08-2017 27.7 (03:30) 18.2 (00:00) 23 12.22 (18:00) 6.39 (16:00) 23.4 1.6 0.4 20.6 0.8
26-08-2017 32.1 (15:20) 16 (00:00) 24 7.5 (11:50) 4.17 (11:50) 0 0 0 0 0
25-08-2017 35.4 (18:10) 15 (00:00) 25.2 6.94 (15:30) 3.61 (16:50) 0 0 0 0 0
24-08-2017 35.7 (17:40) 16.8 (00:00) 26.3 10.83 (17:00) 6.39 (17:00) 0 0 0 0 0

Gráficas

Temp. máximas Temp. mínimas Temp. medias Precipitaciones Rachas de viento máximas Velocidades máximas media en intervalos de 10 minutos

Datos horarios

Fecha y hora oficial Temperatura (ºC) Velocidad del viento (km/h) Dirección del viento Racha (km/h) Dirección de racha Precipitación (mm) Presión (hPa) Tendencia (hPa) Humedad (%)
2017-09-22 23:00:00 19.4 2 Norte 7 Este 0 -- -- 43
2017-09-22 22:00:00 22 5 Noroeste 13 Norte 0 -- -- 35
2017-09-22 21:00:00 23.5 8 Norte 12 Norte 0 -- -- 33
2017-09-22 20:00:00 26.9 0 Calma 10 Sudoeste 0 -- -- 31
2017-09-22 19:00:00 29.6 7 Sudoeste 17 Sudoeste 0 -- -- 23
2017-09-22 18:00:00 30.2 12 Sudoeste 22 Sudoeste 0 -- -- 23
2017-09-22 17:00:00 30.5 8 Sudoeste 23 Oeste 0 -- -- 24
2017-09-22 16:00:00 30.3 7 Sudeste 15 Sur 0 -- -- 23
2017-09-22 15:00:00 29 8 Este 15 Sudeste 0 -- -- 22
2017-09-22 14:00:00 27.5 7 Sudoeste 16 Sudeste 0 -- -- 30
2017-09-22 13:00:00 26.2 7 Este 18 Este 0 -- -- 32
2017-09-22 12:00:00 23.6 6 Este 11 Sudeste 0 -- -- 39
2017-09-22 11:00:00 21.1 2 Nordeste 7 Este 0 -- -- 46
2017-09-22 10:00:00 16.9 3 Este 4 Este 0 -- -- 57
2017-09-22 09:00:00 13.7 0 Calma 6 Oeste 0 -- -- 67
2017-09-22 08:00:00 13.4 0 Calma 5 Noroeste 0 -- -- 67
2017-09-22 07:00:00 14 0 Calma 11 Nordeste 0 -- -- 68
2017-09-22 06:00:00 13.5 7 Este 9 Este 0 -- -- 71
2017-09-22 05:00:00 16.4 4 Norte 5 Norte 0 -- -- 55
2017-09-22 04:00:00 16.3 0 Calma 4 Nordeste 0 -- -- 57
2017-09-22 03:00:00 17.3 0 Calma 5 Nordeste 0 -- -- 53
2017-09-22 02:00:00 17 4 Norte 8 Nordeste 0 -- -- 55
2017-09-22 01:00:00 17.7 2 Norte 7 Nordeste 0 -- -- 52
2017-09-22 00:00:00 19.1 3 Este 8 Norte 0 -- -- 49
2017-09-21 23:00:00 20.8 7 Norte 10 Norte 0 -- -- 44
2017-09-21 22:00:00 22.4 4 Norte 8 Oeste 0 -- -- 41
2017-09-21 21:00:00 23.8 4 Oeste 6 Oeste 0 -- -- 40
2017-09-21 20:00:00 26.2 4 Oeste 6 Sudoeste 0 -- -- 34
2017-09-21 19:00:00 28 5 Sudoeste 15 Sudoeste 0 -- -- 29
2017-09-21 18:00:00 29.3 11 Sudoeste 22 Sudoeste 0 -- -- 26
2017-09-21 17:00:00 29.4 14 Sudoeste 26 Oeste 0 -- -- 26
2017-09-21 16:00:00 30.5 8 Sudoeste 22 Oeste 0 -- -- 26
2017-09-21 15:00:00 29 12 Sudoeste 19 Sur 0 -- -- 28
2017-09-21 14:00:00 28.6 8 Sudoeste 17 Sur 0 -- -- 26
2017-09-21 13:00:00 27.2 5 Sur 12 Sur 0 -- -- 26
2017-09-21 12:00:00 25.3 3 Este 8 Este 0 -- -- 30
2017-09-21 11:00:00 22.5 4 Sudeste 6 Sudeste 0 -- -- 39
2017-09-21 10:00:00 17.9 2 Oeste 5 Oeste 0 -- -- 47
2017-09-21 09:00:00 13.5 3 Norte 6 Este 0 -- -- 61
2017-09-21 08:00:00 12.6 2 Nordeste 4 Este 0 -- -- 63
2017-09-21 07:00:00 13.6 3 Sudoeste 5 Sudoeste 0 -- -- 58
2017-09-21 06:00:00 13.1 4 Nordeste 7 Este 0 -- -- 61
2017-09-21 05:00:00 14.1 4 Este 5 Este 0 -- -- 61
2017-09-21 04:00:00 15 2 Sudoeste 4 Sudoeste 0 -- -- 54
2017-09-21 03:00:00 15.8 2 Este 7 Este 0 -- -- 53
2017-09-21 02:00:00 16 6 Nordeste 9 Este 0 -- -- 51
2017-09-21 01:00:00 17.7 0 Calma 4 Sudeste 0 -- -- 46
2017-09-21 00:00:00 18.4 3 Sudeste 6 Sudeste 0 -- -- 45
2017-09-20 23:00:00 20 2 Sudeste 5 Norte 0 -- -- 40
2017-09-20 22:00:00 21.2 3 Nordeste 10 Norte 0 -- -- 38
2017-09-20 21:00:00 23.9 6 Norte 12 Norte 0 -- -- 32
2017-09-20 20:00:00 28 5 Oeste 12 Oeste 0 -- -- 25
2017-09-20 19:00:00 30.2 9 Sudoeste 19 Sudoeste 0 -- -- 23
2017-09-20 18:00:00 30.6 10 Sudoeste 18 Sudoeste 0 -- -- 23
2017-09-20 17:00:00 30.4 6 Oeste 18 Sudoeste 0 -- -- 23
2017-09-20 16:00:00 30.3 10 Sudoeste 17 Sudoeste 0 -- -- 24
2017-09-20 15:00:00 29.3 7 Sudeste 17 Sur 0 -- -- 25
2017-09-20 14:00:00 28 8 Sudeste 18 Sudeste 0 -- -- 26
2017-09-20 13:00:00 26.6 7 Este 15 Este 0 -- -- 26
2017-09-20 12:00:00 23.8 9 Nordeste 15 Nordeste 0 -- -- 32
2017-09-20 11:00:00 21.9 4 Sudeste 8 Este 0 -- -- 42
2017-09-20 10:00:00 17.7 4 Este 8 Este 0 -- -- 51
2017-09-20 09:00:00 12.3 0 Calma 6 Este 0 -- -- 70
2017-09-20 08:00:00 12.2 0 Calma 4 Este 0 -- -- 67
2017-09-20 07:00:00 13.1 3 Nordeste 7 Nordeste 0 -- -- 64
2017-09-20 06:00:00 13.5 0 Calma 4 Norte 0 -- -- 62
2017-09-20 05:00:00 13.1 3 Nordeste 11 Nordeste 0 -- -- 65
2017-09-20 04:00:00 13.6 3 Este 5 Este 0 -- -- 63
2017-09-20 03:00:00 15.6 5 Este 9 Nordeste 0 -- -- 57
2017-09-20 02:00:00 15.5 5 Este 9 Este 0 -- -- 59
2017-09-20 01:00:00 16.9 4 Norte 6 Norte 0 -- -- 56
2017-09-20 00:00:00 17.1 4 Sudeste 7 Norte 0 -- -- 57
2017-09-19 23:00:00 18.9 3 Noroeste 11 Norte 0 -- -- 50
2017-09-19 22:00:00 20.4 5 Nordeste 10 Norte 0 -- -- 48
2017-09-19 21:00:00 22.6 7 Norte 10 Norte 0 -- -- 42
2017-09-19 20:00:00 27.1 4 Sudoeste 11 Sudoeste 0 -- -- 33
2017-09-19 19:00:00 28.6 7 Sudoeste 14 Sudoeste 0 -- -- 29
2017-09-19 18:00:00 28.9 8 Sudoeste 18 Sudoeste 0 -- -- 28
2017-09-19 17:00:00 28.5 6 Sur 18 Sudoeste 0 -- -- 29
2017-09-19 16:00:00 27.8 11 Oeste 20 Oeste 0 -- -- 30
2017-09-19 15:00:00 27.2 7 Sur 19 Oeste 0 -- -- 31
2017-09-19 14:00:00 26.6 9 Sudoeste 20 Oeste 0 -- -- 33
2017-09-19 13:00:00 25.2 6 Sudeste 14 Este 0 -- -- 34
2017-09-19 12:00:00 23.7 5 Sudeste 10 Sudeste 0 -- -- 38
2017-09-19 11:00:00 21.8 6 Este 10 Este 0 -- -- 42
2017-09-19 10:00:00 19 2 Nordeste 5 Norte 0 -- -- 56
2017-09-19 09:00:00 12.8 4 Norte 9 Este 0 -- -- 73
2017-09-19 08:00:00 13 2 Noroeste 9 Noroeste 0 -- -- 65
2017-09-19 07:00:00 11.6 0 Calma 9 Este 0 -- -- 73
2017-09-19 06:00:00 12.2 4 Este 8 Este 0 -- -- 71
2017-09-19 05:00:00 12.4 4 Este 6 Este 0 -- -- 72
2017-09-19 04:00:00 16 4 Noroeste 6 Noroeste 0 -- -- 56
2017-09-19 03:00:00 16 5 Oeste 7 Noroeste 0 -- -- 55
2017-09-19 02:00:00 16.1 4 Oeste 6 Oeste 0 -- -- 55
2017-09-19 01:00:00 16.6 0 Calma 4 Oeste 0 -- -- 55
2017-09-19 00:00:00 17.9 2 Este 8 Nordeste 0 -- -- 50
2017-09-18 23:00:00 18.8 3 Nordeste 18 Oeste 0 -- -- 49
2017-09-18 22:00:00 20.3 5 Noroeste 9 Norte 0 -- -- 44
2017-09-18 21:00:00 21.6 6 Norte 13 Noroeste 0 -- -- 43
2017-09-18 20:00:00 25.5 5 Sudoeste 23 Sudoeste 0 -- -- 32
2017-09-18 19:00:00 26.4 9 Sur 26 Sur 0 -- -- 32
2017-09-18 18:00:00 26.8 14 Sudoeste 32 Sudoeste 0 -- -- 33
2017-09-18 17:00:00 27.1 17 Sur 33 Sudoeste 0 -- -- 33
2017-09-18 16:00:00 27.1 12 Sudoeste 28 Sudoeste 0 -- -- 32
2017-09-18 15:00:00 26.7 10 Sur 22 Sur 0 -- -- 33
2017-09-18 14:00:00 25 9 Sudoeste 21 Sudoeste 0 -- -- 35
2017-09-18 13:00:00 23.7 7 Sur 17 Sur 0 -- -- 37
2017-09-18 12:00:00 20.9 5 Nordeste 15 Este 0 -- -- 41
2017-09-18 11:00:00 18.8 7 Este 18 Este 0 -- -- 44
2017-09-18 10:00:00 16.4 10 Este 19 Este 0 -- -- 50
2017-09-18 09:00:00 11.5 5 Nordeste 10 Nordeste 0 -- -- 64
2017-09-18 08:00:00 11 4 Nordeste 17 Nordeste 0 -- -- 64
2017-09-18 07:00:00 10.3 6 Nordeste 11 Nordeste 0 -- -- 62
2017-09-18 06:00:00 9.5 0 Calma 6 Nordeste 0 -- -- 64
2017-09-18 05:00:00 9.9 3 Este 6 Sudeste 0 -- -- 61
2017-09-18 04:00:00 11.6 2 Nordeste 8 Nordeste 0 -- -- 53
2017-09-18 03:00:00 11 3 Este 8 Este 0 -- -- 59
2017-09-18 02:00:00 13 6 Nordeste 8 Nordeste 0 -- -- 48
2017-09-18 01:00:00 14.6 3 Norte 6 Nordeste 0 -- -- 42
2017-09-18 00:00:00 14 5 Nordeste 8 Nordeste 0 -- -- 45
2017-09-17 23:00:00 16.6 3 Norte 5 Noroeste 0 -- -- 37
2017-09-17 22:00:00 18.7 2 Nordeste 11 Norte 0 -- -- 32
2017-09-17 21:00:00 19.9 5 Norte 17 Sudoeste 0 -- -- 28
2017-09-17 20:00:00 24.1 10 Sudoeste 23 Sudoeste 0 -- -- 24
2017-09-17 19:00:00 25.8 14 Sudoeste 30 Sudoeste 0 -- -- 22
2017-09-17 18:00:00 26.3 17 Sudoeste 27 Sudoeste 0 -- -- 22
2017-09-17 17:00:00 26.3 17 Sudoeste 39 Sur 0 -- -- 23
2017-09-17 16:00:00 26.1 13 Sur 23 Sudoeste 0 -- -- 25
2017-09-17 15:00:00 24.6 12 Sudoeste 26 Oeste 0 -- -- 26
2017-09-17 14:00:00 23.4 8 Sudoeste 21 Oeste 0 -- -- 26
2017-09-17 13:00:00 22.3 8 Sur 15 Sudoeste 0 -- -- 28
2017-09-17 12:00:00 20 10 Oeste 15 Sudoeste 0 -- -- 31
2017-09-17 11:00:00 18 4 Oeste 8 Oeste 0 -- -- 36
2017-09-17 10:00:00 15.9 3 Sudeste 6 Noroeste 0 -- -- 40
2017-09-17 09:00:00 10.9 3 Noroeste 5 Noroeste 0 -- -- 59
2017-09-17 08:00:00 9 3 Noroeste 9 Noroeste 0 -- -- 64
2017-09-17 07:00:00 8.9 4 Noroeste 6 Oeste 0 -- -- 61
2017-09-17 06:00:00 9.9 7 Este 10 Este 0 -- -- 58
2017-09-17 05:00:00 11.2 2 Este 7 Este 0 -- -- 54
2017-09-17 04:00:00 12.8 4 Norte 8 Este 0 -- -- 49
2017-09-17 03:00:00 13.2 3 Noroeste 14 Nordeste 0 -- -- 45
2017-09-17 02:00:00 12.9 6 Nordeste 11 Nordeste 0 -- -- 49
2017-09-17 01:00:00 13.2 3 Nordeste 9 Este 0 -- -- 48
2017-09-17 00:00:00 14.3 4 Norte 9 Norte 0 -- -- 45
2017-09-16 23:00:00 15 3 Este 14 Sur 0 -- -- 43
2017-09-16 22:00:00 17 6 Oeste 13 Sudoeste 0 -- -- 36
2017-09-16 21:00:00 20.3 6 Oeste 15 Oeste 0 -- -- 29
2017-09-16 20:00:00 23.1 8 Sudoeste 18 Sudoeste 0 -- -- 27
2017-09-16 19:00:00 24.3 9 Sudoeste 24 Sudoeste 0 -- -- 26
2017-09-16 18:00:00 24.6 15 Sudoeste 24 Sudoeste 0 -- -- 28
2017-09-16 17:00:00 24.9 15 Sudoeste 28 Sur 0 -- -- 27
2017-09-16 16:00:00 24.1 9 Sudoeste 21 Sur 0 -- -- 27
2017-09-16 15:00:00 23.8 9 Sudoeste 24 Sudoeste 0 -- -- 28
2017-09-16 14:00:00 22.7 9 Sur 18 Sur 0 -- -- 31
2017-09-16 13:00:00 21.6 8 Sudeste 21 Sur 0 -- -- 33
2017-09-16 12:00:00 20.5 8 Sur 14 Sur 0 -- -- 36
2017-09-16 11:00:00 18.7 6 Sudeste 9 Este 0 -- -- 39
2017-09-16 10:00:00 15.2 3 Sudoeste 7 Oeste 0 -- -- 49
2017-09-16 09:00:00 11.9 5 Oeste 10 Oeste 0 -- -- 57
2017-09-16 08:00:00 12.2 5 Norte 12 Norte 0 -- -- 54
2017-09-16 07:00:00 11.8 4 Nordeste 10 Nordeste 0 -- -- 56
2017-09-16 06:00:00 12.8 5 Noroeste 7 Noroeste 0 -- -- 50
2017-09-16 05:00:00 15.6 3 Nordeste 19 Nordeste 0 -- -- 45
2017-09-16 04:00:00 16.3 14 Este 29 Nordeste 0 -- -- 44
2017-09-16 03:00:00 14.5 4 Nordeste 11 Nordeste 0 -- -- 44
2017-09-16 02:00:00 15.1 4 Sudoeste 9 Oeste 0 -- -- 44
2017-09-16 01:00:00 16.6 0 Calma 8 Sudeste 0 -- -- 42
2017-09-16 00:00:00 17.5 2 Noroeste 14 Sur 0 -- -- 38
2017-09-15 23:00:00 19.6 10 Sur 21 Sudeste 0 -- -- 32
2017-09-15 22:00:00 19.7 6 Sudeste 11 Sudeste 0 -- -- 30
2017-09-15 21:00:00 21.6 9 Sur 32 Noroeste 0 -- -- 26
2017-09-15 20:00:00 23.4 21 Oeste 38 Noroeste 0 -- -- 23
2017-09-15 19:00:00 25.5 17 Noroeste 30 Noroeste 0 -- -- 22
2017-09-15 18:00:00 27.2 12 Sudoeste 23 Sudoeste 0 -- -- 25
2017-09-15 17:00:00 27.2 9 Sur 19 Sudeste 0 -- -- 28
2017-09-15 16:00:00 26.2 10 Sur 21 Este 0 -- -- 30
2017-09-15 15:00:00 26.3 9 Sur 20 Sur 0 -- -- 29
2017-09-15 14:00:00 25.2 7 Sur 19 Sudoeste 0 -- -- 33
2017-09-15 13:00:00 23.6 6 Este 17 Sur 0 -- -- 37
2017-09-15 12:00:00 22.2 4 Noroeste 11 Sudoeste 0 -- -- 42
2017-09-15 11:00:00 20 5 Oeste 10 Sudoeste 0 -- -- 47
2017-09-15 10:00:00 18.2 3 Oeste 12 Oeste 0 -- -- 50
2017-09-15 09:00:00 14.3 3 Oeste 8 Oeste 0 -- -- 65
2017-09-15 08:00:00 15.8 4 Oeste 9 Noroeste 0 -- -- 57
2017-09-15 07:00:00 15.9 4 Este 10 Este 0 -- -- 59
2017-09-15 06:00:00 16.7 8 Nordeste 14 Nordeste 0 -- -- 61
2017-09-15 05:00:00 16.6 5 Este 9 Este 0 -- -- 65
2017-09-15 04:00:00 17.7 3 Este 10 Nordeste 0 -- -- 62
2017-09-15 03:00:00 18.3 4 Este 8 Este 0 -- -- 60
2017-09-15 02:00:00 21.1 6 Este 23 Noroeste 0 -- -- 48
2017-09-15 01:00:00 24.7 17 Noroeste 35 Noroeste 0 -- -- 32
2017-09-15 00:00:00 25.6 20 Oeste 37 Noroeste 0 -- -- 33
2017-09-14 23:00:00 22.1 6 Oeste 15 Sudoeste 0 -- -- 46
2017-09-14 22:00:00 22.5 8 Sudoeste 15 Sudoeste 0 -- -- 46
2017-09-14 21:00:00 26.6 9 Sudoeste 20 Sudoeste 0 -- -- 38
2017-09-14 20:00:00 30.9 3 Sudoeste 9 Sur 0 -- -- 29
2017-09-14 19:00:00 31.4 6 Sudoeste 17 Sur 0 -- -- 26
2017-09-14 18:00:00 32.2 8 Sudoeste 18 Sur 0 -- -- 25
2017-09-14 17:00:00 31.7 10 Sudoeste 19 Sudoeste 0 -- -- 25
2017-09-14 16:00:00 30.5 9 Sudoeste 17 Sur 0 -- -- 29
2017-09-14 15:00:00 30.2 4 Nordeste 14 Este 0 -- -- 28
2017-09-14 14:00:00 28.4 10 Este 15 Este 0 -- -- 34
2017-09-14 13:00:00 27.2 8 Sur 16 Sudoeste 0 -- -- 38
2017-09-14 12:00:00 25.2 7 Oeste 14 Oeste 0 -- -- 42
2017-09-14 11:00:00 23.9 5 Sur 13 Sur 0 -- -- 44
2017-09-14 10:00:00 20.9 6 Este 9 Este 0 -- -- 54
2017-09-14 09:00:00 14.4 4 Nordeste 8 Este 0 -- -- 74
2017-09-14 08:00:00 13 5 Este 7 Este 0 -- -- 75
2017-09-14 07:00:00 14.3 2 Este 8 Nordeste 0 -- -- 70
2017-09-14 06:00:00 15 0 Calma 9 Nordeste 0 -- -- 63
2017-09-14 05:00:00 15.7 4 Nordeste 8 Norte 0 -- -- 61
2017-09-14 04:00:00 16.5 3 Norte 6 Sudoeste 0 -- -- 57
2017-09-14 03:00:00 17.2 2 Este 10 Este 0 -- -- 55
2017-09-14 02:00:00 18.2 6 Nordeste 11 Nordeste 0 -- -- 52
2017-09-14 01:00:00 18.6 5 Nordeste 10 Nordeste 0 -- -- 52
2017-09-14 00:00:00 19.9 4 Este 9 Este 0 -- -- 48
2017-09-13 23:00:00 22.3 2 Sudoeste 6 Oeste 0 -- -- 43
2017-09-13 22:00:00 24.1 3 Noroeste 10 Oeste 0 -- -- 38
2017-09-13 21:00:00 26.9 6 Norte 9 Norte 0 -- -- 32
2017-09-13 20:00:00 31.6 7 Oeste 14 Sur 0 -- -- 26
2017-09-13 19:00:00 33.3 8 Sudoeste 21 Sudoeste 0 -- -- 22
2017-09-13 18:00:00 33.8 10 Sudoeste 19 Sudoeste 0 -- -- 21
2017-09-13 17:00:00 33.8 10 Sudoeste 21 Sudoeste 0 -- -- 21
2017-09-13 16:00:00 33.2 8 Oeste 22 Oeste 0 -- -- 22
2017-09-13 15:00:00 32 8 Sudeste 17 Sudoeste 0 -- -- 24
2017-09-13 14:00:00 31.9 10 Sudeste 17 Sur 0 -- -- 26
2017-09-13 13:00:00 29.8 9 Este 17 Este 0 -- -- 29
2017-09-13 12:00:00 27.4 3 Nordeste 12 Nordeste 0 -- -- 37
2017-09-13 11:00:00 24.7 6 Sudeste 9 Sudeste 0 -- -- 41
2017-09-13 10:00:00 20.3 2 Oeste 7 Este 0 -- -- 53
2017-09-13 09:00:00 16.2 2 Sudeste 6 Este 0 -- -- 65
2017-09-13 08:00:00 15.4 3 Este 6 Este 0 -- -- 67
2017-09-13 07:00:00 15.3 5 Nordeste 12 Este 0 -- -- 67
2017-09-13 06:00:00 17.5 3 Sudoeste 9 Norte 0 -- -- 59
2017-09-13 05:00:00 19.4 5 Nordeste 12 Noroeste 0 -- -- 53
2017-09-13 04:00:00 18.3 4 Norte 7 Norte 0 -- -- 56
2017-09-13 03:00:00 19.5 4 Noroeste 7 Noroeste 0 -- -- 52
2017-09-13 02:00:00 19.3 0 Calma 5 Noroeste 0 -- -- 53
2017-09-13 01:00:00 20.4 3 Norte 18 Sudeste 0 -- -- 49
2017-09-13 00:00:00 21.9 6 Norte 8 Norte 0 -- -- 45
2017-09-12 23:00:00 22.3 0 Calma 6 Noroeste 0 -- -- 46
2017-09-12 22:00:00 23.3 3 Norte 15 Oeste 0 -- -- 43
2017-09-12 21:00:00 25.6 10 Oeste 16 Oeste 0 -- -- 35
2017-09-12 20:00:00 29.9 5 Sudoeste 13 Sudoeste 0 -- -- 31
2017-09-12 19:00:00 31.1 8 Sudoeste 17 Sudoeste 0 -- -- 28
2017-09-12 18:00:00 30.9 9 Sudoeste 22 Sur 0 -- -- 28
2017-09-12 17:00:00 30.9 12 Sudoeste 22 Oeste 0 -- -- 28
2017-09-12 16:00:00 30.2 5 Noroeste 25 Sudoeste 0 -- -- 29
2017-09-12 15:00:00 29.5 8 Oeste 21 Sur 0 -- -- 30
2017-09-12 14:00:00 28.3 6 Sudoeste 19 Sudoeste 0 -- -- 33
2017-09-12 13:00:00 27.1 7 Sudeste 13 Sudoeste 0 -- -- 33
2017-09-12 12:00:00 25.8 4 Sudeste 11 Sudeste 0 -- -- 37
2017-09-12 11:00:00 23.9 6 Sudeste 17 Este 0 -- -- 41
2017-09-12 10:00:00 22 7 Este 12 Este 0 -- -- 49
2017-09-12 09:00:00 15.5 7 Nordeste 12 Nordeste 0 -- -- 68
2017-09-12 08:00:00 14.9 3 Nordeste 10 Nordeste 0 -- -- 66
2017-09-12 07:00:00 15 3 Nordeste 9 Nordeste 0 -- -- 65
2017-09-12 06:00:00 15.9 3 Nordeste 12 Este 0 -- -- 60
2017-09-12 05:00:00 17.1 4 Norte 12 Este 0 -- -- 54
2017-09-12 04:00:00 18 6 Este 13 Nordeste 0 -- -- 53
2017-09-12 03:00:00 19.5 4 Este 17 Este 0 -- -- 48
2017-09-12 02:00:00 22.6 10 Este 15 Este 0 -- -- 39
2017-09-12 01:00:00 24 7 Sudeste 25 Oeste 0 -- -- 35
2017-09-12 00:00:00 26.8 12 Noroeste 42 Oeste 0 -- -- 31
2017-09-11 23:00:00 27.1 10 Oeste 25 Noroeste 0 -- -- 28
2017-09-11 22:00:00 28.2 13 Noroeste 39 Noroeste 0 -- -- 27
2017-09-11 21:00:00 28 8 Noroeste 26 Oeste 0 -- -- 28
2017-09-11 20:00:00 30.9 12 Oeste 33 Oeste 0 -- -- 27
2017-09-11 19:00:00 32.3 21 Noroeste 33 Oeste 0 -- -- 26
2017-09-11 18:00:00 33.3 15 Oeste 30 Norte 0 -- -- 24
2017-09-11 17:00:00 33.2 -- -- 23 Norte 0 -- -- 23
2017-09-11 16:00:00 32.7 10 Sudoeste 26 Sudoeste 0 -- -- 24
2017-09-11 15:00:00 30.5 5 Oeste 15 Sudoeste 0 -- -- 27
2017-09-11 14:00:00 28.6 5 Oeste 16 Sudeste 0 -- -- 29
2017-09-11 13:00:00 27 5 Sudeste 14 Sur 0 -- -- 28
2017-09-11 12:00:00 24.8 3 Sudeste 10 Este 0 -- -- 33
2017-09-11 11:00:00 22.4 4 Este 9 Este 0 -- -- 40
2017-09-11 10:00:00 19.3 2 Sudeste 6 Sudeste 0 -- -- 45
2017-09-11 09:00:00 14.9 0 Calma 4 Noroeste 0 -- -- 67
2017-09-11 08:00:00 12.9 0 Calma 6 Este 0 -- -- 65
2017-09-11 07:00:00 13.5 3 Este 5 Sudeste 0 -- -- 65
2017-09-11 06:00:00 13.4 0 Calma 8 Norte 0 -- -- 64
2017-09-11 05:00:00 13.9 0 Calma 6 Este 0 -- -- 61
2017-09-11 04:00:00 15.2 3 Este 6 Sudeste 0 -- -- 56
2017-09-11 03:00:00 16 5 Nordeste 9 Norte 0 -- -- 53
2017-09-11 02:00:00 16.5 4 Norte 8 Este 0 -- -- 52
2017-09-11 01:00:00 16.5 4 Este 10 Oeste 0 -- -- 52
2017-09-11 00:00:00 17.9 5 Noroeste 11 Sudoeste 0 -- -- 47
2017-09-10 23:00:00 18.7 5 Este 8 Norte 0 -- -- 47
2017-09-10 22:00:00 20.3 5 Este 17 Norte 0 -- -- 42
2017-09-10 21:00:00 22.3 8 Norte 13 Norte 0 -- -- 38
2017-09-10 20:00:00 26.7 0 Calma 12 Sudoeste 0 -- -- 28
2017-09-10 19:00:00 27.2 5 Oeste 17 Oeste 0 -- -- 26
2017-09-10 18:00:00 27 8 Oeste 23 Sur 0 -- -- 27
2017-09-10 17:00:00 26.4 10 Sur 24 Sur 0 -- -- 27
2017-09-10 16:00:00 25.4 9 Sudoeste 24 Oeste 0 -- -- 29
2017-09-10 15:00:00 24.2 8 Oeste 22 Sudoeste 0 -- -- 32
2017-09-10 14:00:00 22.9 10 Sur 22 Sur 0 -- -- 32
2017-09-10 13:00:00 21.7 6 Sudoeste 15 Sudoeste 0 -- -- 35
2017-09-10 12:00:00 20.4 7 Sudoeste 17 Oeste 0 -- -- 38
2017-09-10 11:00:00 18.9 4 Sudoeste 12 Sur 0 -- -- 42
2017-09-10 10:00:00 16.5 4 Sudeste 8 Sudeste 0 -- -- 50
2017-09-10 09:00:00 12.5 0 Calma 6 Norte 0 -- -- 63
2017-09-10 08:00:00 11.3 3 Sudoeste 8 Norte 0 -- -- 60
2017-09-10 07:00:00 12 6 Norte 12 Norte 0 -- -- 59
2017-09-10 06:00:00 12.6 3 Norte 6 Norte 0 -- -- 56
2017-09-10 05:00:00 13.8 5 Noroeste 6 Noroeste 0 -- -- 52
2017-09-10 04:00:00 13.7 3 Noroeste 9 Norte 0 -- -- 52
2017-09-10 03:00:00 16 2 Oeste 12 Nordeste 0 -- -- 44
2017-09-10 02:00:00 17 4 Norte 54 Oeste 0 -- -- 42
2017-09-10 01:00:00 19.5 25 Noroeste 57 Oeste 0 -- -- 37
2017-09-10 00:00:00 20.3 32 Noroeste 67 Noroeste 0 -- -- 35
2017-09-09 23:00:00 21.2 40 Noroeste 59 Oeste 0 -- -- 33
2017-09-09 22:00:00 22 18 Noroeste 49 Noroeste 0 -- -- 30
2017-09-09 21:00:00 22.4 22 Noroeste 54 Noroeste 0 -- -- 28
2017-09-09 20:00:00 24.1 19 Noroeste 49 Noroeste 0 -- -- 28
2017-09-09 19:00:00 25 27 Noroeste 47 Noroeste 0 -- -- 26
2017-09-09 18:00:00 26.4 21 Oeste 40 Noroeste 0 -- -- 28
2017-09-09 17:00:00 26.8 26 Oeste 50 Noroeste 0 -- -- 25
2017-09-09 16:00:00 26.9 22 Noroeste 45 Noroeste 0 -- -- 25
2017-09-09 15:00:00 27.1 23 Oeste 48 Norte 0 -- -- 25
2017-09-09 14:00:00 26.5 19 Oeste 37 Noroeste 0 -- -- 27
2017-09-09 13:00:00 25.4 10 Sudeste 20 Este 0 -- -- 36
2017-09-09 12:00:00 22.1 11 Nordeste 22 Nordeste 0 -- -- 46
2017-09-09 11:00:00 20.3 15 Este 26 Este 0 -- -- 48
2017-09-09 10:00:00 19.5 15 Este 22 Este 0 -- -- 48
2017-09-09 09:00:00 17.2 15 Este 28 Este 0 -- -- 47
2017-09-09 08:00:00 15.4 6 Nordeste 12 Nordeste 0 -- -- 52
2017-09-09 07:00:00 15.4 4 Nordeste 11 Nordeste 0 -- -- 57
2017-09-09 06:00:00 15.4 4 Nordeste 8 Este 0 -- -- 54
2017-09-09 05:00:00 16.7 2 Nordeste 10 Este 0 -- -- 47
2017-09-09 04:00:00 17.2 5 Este 8 Este 0 -- -- 47
2017-09-09 03:00:00 16.9 4 Este 8 Nordeste 0 -- -- 50
2017-09-09 02:00:00 18.2 5 Nordeste 9 Este 0 -- -- 41
2017-09-09 01:00:00 17.9 6 Nordeste 15 Este 0 -- -- 43
2017-09-09 00:00:00 19.9 4 Nordeste 11 Nordeste 0 -- -- 33
2017-09-08 23:00:00 22.8 2 Noroeste 8 Oeste 0 -- -- 28
2017-09-08 22:00:00 24.7 2 Noroeste 15 Oeste 0 -- -- 26
2017-09-08 21:00:00 25.7 6 Oeste 10 Oeste 0 -- -- 23
2017-09-08 20:00:00 30.8 5 Sudoeste 25 Sudoeste 0 -- -- 15
2017-09-08 19:00:00 32.4 14 Sudoeste 28 Sudoeste 0 -- -- 15
2017-09-08 18:00:00 33 14 Sudoeste 28 Sudoeste 0 -- -- 17
2017-09-08 17:00:00 32.8 14 Sudoeste 26 Oeste 0 -- -- 18
2017-09-08 16:00:00 32.7 12 Sudoeste 23 Sudoeste 0 -- -- 16
2017-09-08 15:00:00 31.8 8 Oeste 17 Oeste 0 -- -- 19
2017-09-08 14:00:00 30.5 5 Este 11 Nordeste 0 -- -- 22
2017-09-08 13:00:00 28.4 4 Este 10 Nordeste 0 -- -- 22
2017-09-08 12:00:00 25.8 3 Nordeste 8 Norte 0 -- -- 26
2017-09-08 11:00:00 22.4 4 Norte 8 Norte 0 -- -- 32
2017-09-08 10:00:00 18.5 2 Norte 6 Oeste 0 -- -- 39
2017-09-08 09:00:00 15 2 Sudoeste 8 Este 0 -- -- 50
2017-09-08 08:00:00 15.4 6 Este 8 Este 0 -- -- 47
2017-09-08 07:00:00 13.5 4 Nordeste 9 Este 0 -- -- 62
2017-09-08 06:00:00 15.9 3 Nordeste 6 Este 0 -- -- 45
2017-09-08 05:00:00 16.8 4 Este 7 Norte 0 -- -- 45
2017-09-08 04:00:00 18.9 4 Norte 12 Norte 0 -- -- 39
2017-09-08 03:00:00 20.1 5 Noroeste 11 Norte 0 -- -- 33
2017-09-08 02:00:00 20 8 Noroeste 11 Noroeste 0 -- -- 35
2017-09-08 01:00:00 21.4 4 Sudoeste 7 Sur 0 -- -- 29
2017-09-08 00:00:00 23 4 Norte 7 Norte 0 -- -- 27
2017-09-07 23:00:00 22.9 3 Este 10 Nordeste 0 -- -- 28
2017-09-07 22:00:00 24.2 3 Nordeste 10 Norte 0 -- -- 30
2017-09-07 21:00:00 26.2 3 Norte 11 Norte 0 -- -- 26
2017-09-07 20:00:00 31.7 4 Oeste 6 Sudoeste 0 -- -- 21
2017-09-07 19:00:00 34 3 Sudeste 14 Sur 0 -- -- 14
2017-09-07 18:00:00 33.8 4 Nordeste 18 Sudeste 0 -- -- 13
2017-09-07 17:00:00 33.9 7 Sudeste 17 Sur 0 -- -- 13
2017-09-07 16:00:00 33.8 8 Sur 14 Sudeste 0 -- -- 13
2017-09-07 15:00:00 32.5 7 Sur 12 Sudeste 0 -- -- 17
2017-09-07 14:00:00 30.8 5 Noroeste 11 Norte 0 -- -- 19
2017-09-07 13:00:00 29.1 3 Oeste 12 Sudoeste 0 -- -- 25
2017-09-07 12:00:00 27.4 5 Sudoeste 11 Sudoeste 0 -- -- 30
2017-09-07 11:00:00 25.9 2 Norte 12 Este 0 -- -- 33
2017-09-07 10:00:00 22.7 5 Este 8 Este 0 -- -- 48
2017-09-07 09:00:00 19.1 0 Calma 5 Este 0 -- -- 65
2017-09-07 08:00:00 18.6 3 Nordeste 8 Oeste 0 -- -- 63
2017-09-07 07:00:00 20.8 6 Noroeste 10 Oeste 0 -- -- 55
2017-09-07 06:00:00 20.1 6 Oeste 10 Oeste 0 -- -- 60
2017-09-07 05:00:00 20.7 4 Noroeste 7 Oeste 0 -- -- 59
2017-09-07 04:00:00 21.2 4 Nordeste 10 Noroeste 0 -- -- 60
2017-09-07 03:00:00 22.4 5 Norte 9 Noroeste 0 -- -- 55
2017-09-07 02:00:00 23 3 Norte 8 Sur 0 -- -- 54
2017-09-07 01:00:00 24.9 5 Oeste 9 Este 0 -- -- 47
2017-09-07 00:00:00 25.7 3 Noroeste 9 Noroeste 0 -- -- 43
2017-09-06 23:00:00 26.8 3 Sur 10 Nordeste 0 -- -- 44
2017-09-06 22:00:00 27.5 5 Noroeste 15 Sudoeste 0 -- -- 42
2017-09-06 21:00:00 31.5 6 Norte 29 Oeste 0 -- -- 32
2017-09-06 20:00:00 33.4 12 Sudoeste 21 Oeste 0 -- -- 29
2017-09-06 19:00:00 35.1 10 Sudoeste 19 Sur 0 -- -- 28
2017-09-06 18:00:00 35.4 11 Sudoeste 20 Oeste 0 -- -- 26
2017-09-06 17:00:00 35.6 11 Sur 21 Sur 0 -- -- 25
2017-09-06 16:00:00 34.8 13 Oeste 22 Sudoeste 0 -- -- 26
2017-09-06 15:00:00 34.4 7 Sudoeste 18 Sudeste 0 -- -- 28
2017-09-06 14:00:00 32.8 10 Sudoeste 16 Sudoeste 0 -- -- 33
2017-09-06 13:00:00 30.8 5 Oeste 13 Sudoeste 0 -- -- 35
2017-09-06 12:00:00 29.6 5 Sudoeste 12 Oeste 0 -- -- 38
2017-09-06 11:00:00 27.5 5 Sudeste 12 Sudoeste 0 -- -- 42
2017-09-06 10:00:00 25.3 6 Sudoeste 9 Noroeste 0 -- -- 49
2017-09-06 09:00:00 22.1 6 Noroeste 10 Noroeste 0 -- -- 52
2017-09-06 08:00:00 20.2 2 Nordeste 10 Nordeste 0 -- -- 60
2017-09-06 07:00:00 18.7 5 Nordeste 9 Este 0 -- -- 66
2017-09-06 06:00:00 20.5 0 Calma 6 Nordeste 0 -- -- 57
2017-09-06 05:00:00 20.2 2 Nordeste 7 Norte 0 -- -- 63
2017-09-06 04:00:00 22.2 0 Calma 6 Norte 0 -- -- 51
2017-09-06 03:00:00 22.2 3 Nordeste 8 Este 0 -- -- 51
2017-09-06 02:00:00 22.3 6 Nordeste 8 Este 0 -- -- 56
2017-09-06 01:00:00 21.9 6 Este 9 Este 0 -- -- 59
2017-09-06 00:00:00 23.8 0 Calma 5 Nordeste 0 -- -- 51
2017-09-05 23:00:00 24.7 3 Este 8 Noroeste 0 -- -- 49
2017-09-05 22:00:00 26.5 3 Norte 13 Norte 0 -- -- 44
2017-09-05 21:00:00 28.7 8 Norte 11 Norte 0 -- -- 40
2017-09-05 20:00:00 33.4 6 Sudoeste 20 Sudoeste 0 -- -- 30
2017-09-05 19:00:00 34.1 12 Sudoeste 21 Sudoeste 0 -- -- 30
2017-09-05 18:00:00 34.3 9 Sudoeste 17 Sur 0 -- -- 30
2017-09-05 17:00:00 34.1 12 Sudoeste 20 Sudoeste 0 -- -- 30
2017-09-05 16:00:00 33.3 11 Oeste 22 Sudoeste 0 -- -- 32
2017-09-05 15:00:00 32.7 6 Sudeste 20 Sur 0 -- -- 34
2017-09-05 14:00:00 31.3 4 Norte 18 Este 0 -- -- 37
2017-09-05 13:00:00 29.9 6 Sur 20 Este 0 -- -- 39
2017-09-05 12:00:00 27.8 5 Norte 14 Este 0 -- -- 46
2017-09-05 11:00:00 25.4 11 Nordeste 22 Este 0 -- -- 50
2017-09-05 10:00:00 22.4 5 Oeste 8 Oeste 0 -- -- 54
2017-09-05 09:00:00 19.1 3 Sur 10 Norte 0 -- -- 67
2017-09-05 08:00:00 16.3 3 Nordeste 8 Sur 0 -- -- 76
2017-09-05 07:00:00 18.5 6 Noroeste 11 Oeste 0 -- -- 64
2017-09-05 06:00:00 17.4 2 Nordeste 6 Nordeste 0 -- -- 72
2017-09-05 05:00:00 18.1 3 Este 7 Nordeste 0 -- -- 68
2017-09-05 04:00:00 18.4 5 Nordeste 8 Norte 0 -- -- 67
2017-09-05 03:00:00 19.7 5 Sur 12 Noroeste 0 -- -- 61
2017-09-05 02:00:00 20.6 4 Sudeste 8 Este 0 -- -- 59
2017-09-05 01:00:00 21.6 3 Oeste 14 Nordeste 0 -- -- 54
2017-09-05 00:00:00 22.4 3 Sudeste 5 Sudeste 0 -- -- 53
2017-09-04 23:00:00 23 3 Nordeste 10 Este 0 -- -- 52
2017-09-04 22:00:00 24.6 3 Noroeste 10 Norte 0 -- -- 47
2017-09-04 21:00:00 27.1 5 Norte 9 Norte 0 -- -- 41
2017-09-04 20:00:00 30.4 5 Nordeste 11 Oeste 0 -- -- 37
2017-09-04 19:00:00 31.9 4 Noroeste 14 Sur 0 -- -- 30
2017-09-04 18:00:00 31.6 8 Sudeste 17 Sur 0 -- -- 29
2017-09-04 17:00:00 31.3 8 Sur 18 Sur 0 -- -- 29
2017-09-04 16:00:00 30.7 7 Oeste 18 Oeste 0 -- -- 30
2017-09-04 15:00:00 29.7 5 Este 17 Sur 0 -- -- 34
2017-09-04 14:00:00 28.6 8 Sudeste 16 Sudeste 0 -- -- 35
2017-09-04 13:00:00 27 9 Sudeste 19 Este 0 -- -- 39
2017-09-04 12:00:00 24.9 8 Este 16 Este 0 -- -- 44
2017-09-04 11:00:00 23.2 8 Sudeste 21 Este 0 -- -- 50
2017-09-04 10:00:00 20.4 9 Nordeste 16 Este 0 -- -- 52
2017-09-04 09:00:00 15.2 0 Calma 8 Este 0 -- -- 61
2017-09-04 08:00:00 13.5 2 Este 9 Nordeste 0 -- -- 64
2017-09-04 07:00:00 13.4 3 Este 9 Nordeste 0 -- -- 61
2017-09-04 06:00:00 13.5 5 Este 10 Este 0 -- -- 61
2017-09-04 05:00:00 14.9 0 Calma 9 Nordeste 0 -- -- 49
2017-09-04 04:00:00 16.9 3 Nordeste 8 Nordeste 0 -- -- 42
2017-09-04 03:00:00 17.2 3 Nordeste 8 Este 0 -- -- 40
2017-09-04 02:00:00 18.7 4 Nordeste 10 Este 0 -- -- 38
2017-09-04 01:00:00 19.7 2 Nordeste 12 Noroeste 0 -- -- 36
2017-09-04 00:00:00 21.3 8 Sudoeste 14 Sur 0 -- -- 31
2017-09-03 23:00:00 21.8 2 Nordeste 12 Noroeste 0 -- -- 33
2017-09-03 22:00:00 25.7 9 Noroeste 13 Oeste 0 -- -- 24
2017-09-03 21:00:00 27.7 5 Noroeste 24 Sudoeste 0 -- -- 20
2017-09-03 20:00:00 31.4 13 Sudoeste 28 Sudoeste 0 -- -- 16
2017-09-03 19:00:00 32.8 15 Sudoeste 34 Sur 0 -- -- 17
2017-09-03 18:00:00 33.6 16 Sudoeste 39 Sudoeste 0 -- -- 15
2017-09-03 17:00:00 33.3 21 Sudoeste 47 Sudoeste 0 -- -- 17
2017-09-03 16:00:00 33.1 20 Sudoeste 38 Sudoeste 0 -- -- 18
2017-09-03 15:00:00 31.7 13 Sudoeste 26 Sudoeste 0 -- -- 24
2017-09-03 14:00:00 29.5 9 Sudoeste 17 Sur 0 -- -- 28
2017-09-03 13:00:00 28.2 5 Sur 11 Sur 0 -- -- 30
2017-09-03 12:00:00 26.1 3 Sur 9 Sur 0 -- -- 38
2017-09-03 11:00:00 23.2 3 Oeste 6 Sur 0 -- -- 43
2017-09-03 10:00:00 20 2 Sudeste 3 Sudeste 0 -- -- 49
2017-09-03 09:00:00 17 4 Oeste 8 Oeste 0 -- -- 64
2017-09-03 08:00:00 16.1 0 Calma 6 Este 0 -- -- 73
2017-09-03 07:00:00 16 4 Este 5 Este 0 -- -- 74
2017-09-03 06:00:00 16.2 2 Sudoeste 6 Norte 0 -- -- 66
2017-09-03 05:00:00 16.1 3 Norte 5 Norte 0 -- -- 64
2017-09-03 04:00:00 16.6 2 Nordeste 8 Este 0 -- -- 64
2017-09-03 03:00:00 17.9 4 Noroeste 7 Noroeste 0 -- -- 57
2017-09-03 02:00:00 17.8 0 Calma 6 Este 0 -- -- 61
2017-09-03 01:00:00 19.1 4 Este 6 Este 0 -- -- 55
2017-09-03 00:00:00 20.3 2 Este 5 Nordeste 0 -- -- 49
2017-09-02 23:00:00 22.1 3 Este 12 Norte 0 -- -- 43
2017-09-02 22:00:00 23 3 Noroeste 9 Norte 0 -- -- 41
2017-09-02 21:00:00 25.1 6 Norte 10 Norte 0 -- -- 37
2017-09-02 20:00:00 30.5 4 Sudoeste 10 Sudeste 0 -- -- 25
2017-09-02 19:00:00 31.1 3 Sur 12 Nordeste 0 -- -- 25
2017-09-02 18:00:00 30 4 Este 12 Este 0 -- -- 27
2017-09-02 17:00:00 29.4 5 Sudeste 14 Sudeste 0 -- -- 28
2017-09-02 16:00:00 28.5 8 Este 15 Sudeste 0 -- -- 29
2017-09-02 15:00:00 27.5 7 Nordeste 15 Este 0 -- -- 31
2017-09-02 14:00:00 26.7 6 Sur 14 Nordeste 0 -- -- 31
2017-09-02 13:00:00 24.5 9 Este 16 Nordeste 0 -- -- 36
2017-09-02 12:00:00 22.9 9 Sudeste 21 Este 0 -- -- 39
2017-09-02 11:00:00 21 16 Este 24 Este 0 -- -- 44
2017-09-02 10:00:00 19 5 Nordeste 12 Sudeste 0 -- -- 57
2017-09-02 09:00:00 17.3 4 Sudeste 10 Nordeste 0 -- -- 59
2017-09-02 08:00:00 14.7 5 Norte 8 Norte 0 -- -- 66
2017-09-02 07:00:00 15.7 4 Norte 8 Norte 0 -- -- 61
2017-09-02 06:00:00 15.6 0 Calma 12 Nordeste 0 -- -- 61
2017-09-02 05:00:00 17.4 5 Nordeste 10 Este 0 -- -- 53
2017-09-02 04:00:00 17.5 5 Norte 9 Norte 0 -- -- 57
2017-09-02 03:00:00 18.5 4 Noroeste 8 Oeste 0 -- -- 56
2017-09-02 02:00:00 19.6 5 Noroeste 13 Este 0 -- -- 53
2017-09-02 01:00:00 20 3 Sur 9 Sudoeste 0 -- -- 53
2017-09-02 00:00:00 22.4 4 Noroeste 9 Sudeste 0 -- -- 41
2017-09-01 23:00:00 24.1 5 Sur 12 Sur 0 -- -- 39
2017-09-01 22:00:00 25.2 8 Norte 17 Norte 0 -- -- 41
2017-09-01 21:00:00 28.2 3 Sudoeste 12 Sudoeste 0 -- -- 29
2017-09-01 20:00:00 30.9 8 Sudoeste 13 Sudoeste 0 -- -- 34
2017-09-01 19:00:00 31.8 5 Sudoeste 17 Oeste 0 -- -- 31
2017-09-01 18:00:00 31.6 7 Noroeste 18 Oeste 0 -- -- 33
2017-09-01 17:00:00 31.5 8 Oeste 19 Sudeste 0 -- -- 33
2017-09-01 16:00:00 30.9 8 Sudoeste 21 Sudoeste 0 -- -- 33
2017-09-01 15:00:00 29.7 12 Oeste 23 Oeste 0 -- -- 34
2017-09-01 14:00:00 29.1 10 Sur 19 Este 0 -- -- 40
2017-09-01 13:00:00 28 4 Sur 15 Sudeste 0 -- -- 40
2017-09-01 12:00:00 25.9 7 Este 15 Este 0 -- -- 46
2017-09-01 11:00:00 24.5 5 Sudeste 7 Sudeste 0 -- -- 50
2017-09-01 10:00:00 22 3 Sudoeste 8 Oeste 0 -- -- 58
2017-09-01 09:00:00 19 2 Sudoeste 9 Noroeste 0 -- -- 74
2017-09-01 08:00:00 17.4 3 Noroeste 9 Norte 0 -- -- 74
2017-09-01 07:00:00 17.2 5 Nordeste 9 Nordeste 0 -- -- 77
2017-09-01 06:00:00 19.1 7 Nordeste 14 Este 0 -- -- 69
2017-09-01 05:00:00 20.8 10 Noroeste 14 Noroeste 0 -- -- 60
2017-09-01 04:00:00 19.3 7 Norte 10 Norte 0 -- -- 67
2017-09-01 03:00:00 19.4 5 Oeste 9 Oeste 0 -- -- 68
2017-09-01 02:00:00 19.5 7 Oeste 9 Oeste 0 -- -- 69
2017-09-01 01:00:00 20.4 3 Sudeste 6 Este 0 -- -- 65
2017-09-01 00:00:00 21.7 3 Norte 7 Norte 0 -- -- 61
2017-08-31 23:00:00 23.2 2 Noroeste 6 Noroeste 0 -- -- 56
2017-08-31 22:00:00 24 0 Calma 12 Norte 0 -- -- 55
2017-08-31 21:00:00 26.2 6 Norte 9 Norte 0 -- -- 47
2017-08-31 20:00:00 29.7 4 Sudoeste 19 Sudoeste 0 -- -- 36
2017-08-31 19:00:00 30 10 Sur 18 Sur 0 -- -- 34
2017-08-31 18:00:00 30.5 8 Sur 19 Sudoeste 0 -- -- 34
2017-08-31 17:00:00 30.5 11 Sudoeste 24 Sudoeste 0 -- -- 34
2017-08-31 16:00:00 30 4 Nordeste 21 Sudoeste 0 -- -- 36
2017-08-31 15:00:00 29.3 9 Oeste 23 Sudoeste 0 -- -- 38
2017-08-31 14:00:00 28.3 7 Sudoeste 17 Sur 0 -- -- 41
2017-08-31 13:00:00 26.9 9 Este 17 Sudeste 0 -- -- 45
2017-08-31 12:00:00 26.3 7 Este 21 Este 0 -- -- 45
2017-08-31 11:00:00 24.9 10 Este 16 Este 0 -- -- 52
2017-08-31 10:00:00 22.4 5 Este 10 Este 0 -- -- 63
2017-08-31 09:00:00 18.8 2 Este 5 Norte 0 -- -- 74
2017-08-31 08:00:00 17.1 5 Norte 7 Norte 0 -- -- 75
2017-08-31 07:00:00 17.2 0 Calma 5 Este 0 -- -- 75
2017-08-31 06:00:00 17.7 2 Sudeste 5 Este 0 -- -- 76
2017-08-31 05:00:00 18.1 4 Nordeste 8 Nordeste 0 -- -- 73
2017-08-31 04:00:00 18.4 3 Nordeste 6 Este 0 -- -- 76
2017-08-31 03:00:00 19.5 2 Norte 8 Nordeste 0 -- -- 75
2017-08-31 02:00:00 20.5 3 Nordeste 11 Sudeste 0 -- -- 73
2017-08-31 01:00:00 21.5 3 Oeste 7 Oeste 0 -- -- 67
2017-08-31 00:00:00 21.8 0 Calma 5 Este 0 -- -- 64
2017-08-30 23:00:00 22.2 5 Este 7 Norte 0 -- -- 65
2017-08-30 22:00:00 23.2 4 Norte 8 Norte 0 -- -- 55
2017-08-30 21:00:00 24.6 3 Noroeste 15 Sudoeste 0 -- -- 51
2017-08-30 20:00:00 26.3 9 Sudoeste 17 Sudoeste 0 -- -- 42
2017-08-30 19:00:00 26.7 10 Sudoeste 21 Sudoeste 0 -- -- 41
2017-08-30 18:00:00 27.7 15 Sudoeste 25 Sudoeste 0 -- -- 38
2017-08-30 17:00:00 27.8 11 Sur 23 Oeste 0 -- -- 39
2017-08-30 16:00:00 26.8 9 Sudoeste 24 Sur 0 -- -- 42
2017-08-30 15:00:00 26.9 10 Sudoeste 21 Sur 0 -- -- 43
2017-08-30 14:00:00 25.2 10 Sur 24 Sudoeste 0 -- -- 49
2017-08-30 13:00:00 24 9 Sur 18 Sudoeste 0 -- -- 52
2017-08-30 12:00:00 22.4 5 Oeste 14 Sudoeste 0 -- -- 61
2017-08-30 11:00:00 20.9 6 Sudeste 9 Este 0 -- -- 66
2017-08-30 10:00:00 17.9 2 Sur 6 Este 0 -- -- 80
2017-08-30 09:00:00 15.3 4 Este 6 Este 0 -- -- 90
2017-08-30 08:00:00 13.6 3 Nordeste 5 Nordeste 0 -- -- 92
2017-08-30 07:00:00 14 3 Oeste 5 Oeste 0 -- -- 93
2017-08-30 06:00:00 14.6 3 Norte 6 Este 0 -- -- 93
2017-08-30 05:00:00 15.1 0 Calma 7 Norte 0 -- -- 90
2017-08-30 04:00:00 15.7 3 Este 11 Noroeste 0 -- -- 89
2017-08-30 03:00:00 17.1 7 Noroeste 10 Noroeste 0 -- -- 83
2017-08-30 02:00:00 16.8 4 Este 7 Este 0 -- -- 87
2017-08-30 01:00:00 16.5 2 Nordeste 5 Sudeste 0 -- -- 86
2017-08-30 00:00:00 17.3 0 Calma 6 Este 0 -- -- 86
2017-08-29 23:00:00 17.9 0 Calma 8 Norte 0 -- -- 81
2017-08-29 22:00:00 19.5 0 Calma 4 Noroeste 0 -- -- 79
2017-08-29 21:00:00 20.3 2 Nordeste 7 Norte 0 -- -- 75
2017-08-29 20:00:00 22.8 2 Norte 14 Nordeste 0 -- -- 65
2017-08-29 19:00:00 22.2 8 Este 13 Este 0 -- -- 72
2017-08-29 18:00:00 22.4 6 Sudoeste 17 Oeste 0 -- -- 69
2017-08-29 17:00:00 21.5 7 Noroeste 16 Sur 0.2 -- -- 77
2017-08-29 16:00:00 23.2 9 Sur 22 Sur 0 -- -- 58
2017-08-29 15:00:00 25.3 12 Sudoeste 22 Sur 0 -- -- 49
2017-08-29 14:00:00 24.6 4 Este 10 Sur 0 -- -- 51
2017-08-29 13:00:00 22.3 4 Sur 13 Nordeste 0 -- -- 64
2017-08-29 12:00:00 22.1 3 Noroeste 10 Sudeste 0 -- -- 68
2017-08-29 11:00:00 19.9 5 Sudoeste 10 Oeste 0 -- -- 78
2017-08-29 10:00:00 18.7 5 Sudoeste 8 Sudoeste 0 -- -- 83
2017-08-29 09:00:00 16.4 0 Calma 5 Oeste 0 -- -- 92
2017-08-29 08:00:00 15.2 2 Norte 6 Nordeste 0 -- -- 94
2017-08-29 07:00:00 14.7 3 Nordeste 6 Nordeste 0 -- -- 94
2017-08-29 06:00:00 14.9 4 Este 5 Este 0 -- -- 93
2017-08-29 05:00:00 15.3 4 Sudoeste 13 Sudoeste 0 -- -- 92
2017-08-29 04:00:00 16.3 7 Sudoeste 18 Sudoeste 0 -- -- 91
2017-08-29 03:00:00 18 4 Este 21 Norte 0 -- -- 81
2017-08-29 02:00:00 17 9 Norte 35 Sudoeste 0.6 -- -- 83
2017-08-29 01:00:00 17.5 16 Sur 34 Sudoeste 0 -- -- 71
2017-08-29 00:00:00 20.6 21 Este 34 Nordeste 0 -- -- 72
2017-08-28 23:00:00 20.7 7 Este 16 Este 0 -- -- 76
2017-08-28 22:00:00 21 9 Este 14 Este 0 -- -- 73
2017-08-28 21:00:00 22.8 9 Este 20 Este 0 -- -- 64
2017-08-28 20:00:00 23.5 10 Este 35 Este 0 -- -- 63
2017-08-28 19:00:00 24.7 13 Nordeste 27 Este 0 -- -- 59
2017-08-28 18:00:00 24.7 17 Nordeste 35 Este 0 -- -- 60
2017-08-28 17:00:00 23.7 19 Este 38 Este 0 -- -- 68
2017-08-28 16:00:00 24.9 21 Este 33 Este 0 -- -- 62
2017-08-28 15:00:00 25.7 25 Este 36 Este 0 -- -- 60
2017-08-28 14:00:00 26.6 15 Este 33 Este 0 -- -- 54
2017-08-28 13:00:00 25.5 12 Este 21 Este 0 -- -- 59
2017-08-28 12:00:00 24.3 11 Este 21 Este 0 -- -- 67
2017-08-28 11:00:00 21.8 12 Este 16 Este 0 -- -- 81
2017-08-28 10:00:00 21.1 4 Nordeste 8 Nordeste 0 -- -- 82
2017-08-28 09:00:00 19.4 6 Nordeste 14 Este 0 -- -- 90
2017-08-28 08:00:00 19.7 3 Este 10 Sudeste 0 -- -- 88
2017-08-28 07:00:00 19.6 6 Nordeste 13 Este 0 -- -- 88
2017-08-28 06:00:00 19.6 0 Calma 6 Sudeste 0 -- -- 91
2017-08-28 05:00:00 19.5 3 Sudoeste 10 Sudeste 0 -- -- 89
2017-08-28 04:00:00 20.3 5 Norte 28 Este 0 -- -- 82
2017-08-28 03:00:00 19.4 0 Calma 17 Sudeste 0 -- -- 92
2017-08-28 02:00:00 19.6 8 Este 10 Este 0 -- -- 90
2017-08-28 01:00:00 19.9 4 Oeste 15 Norte 0 -- -- 87
2017-08-28 00:00:00 20.1 9 Sudeste 28 Este 0 -- -- 83
2017-08-27 23:00:00 20.2 10 Este 19 Este 0 -- -- 89
2017-08-27 22:00:00 20.5 4 Norte 28 Oeste 0.4 -- -- 92
2017-08-27 21:00:00 20.5 7 Sudeste 14 Este 0.2 -- -- 90
2017-08-27 20:00:00 20.7 6 Este 12 Sudeste 0.2 -- -- 88
2017-08-27 19:00:00 20.3 8 Este 37 Este 0 -- -- 82
2017-08-27 18:00:00 18.6 17 Este 44 Nordeste 11.6 -- -- 84
2017-08-27 17:00:00 20.7 11 Oeste 32 Este 8.8 -- -- 86
2017-08-27 16:00:00 25.6 23 Este 35 Este 0.2 -- -- 54
2017-08-27 15:00:00 26.9 15 Este 30 Este 0 -- -- 50
2017-08-27 14:00:00 27.3 16 Este 35 Este 0 -- -- 48
2017-08-27 13:00:00 25.3 19 Nordeste 32 Este 0 -- -- 57
2017-08-27 12:00:00 22.8 12 Este 21 Este 0 -- -- 70
2017-08-27 11:00:00 23.2 17 Nordeste 32 Nordeste 0.2 -- -- 60
2017-08-27 10:00:00 22.5 7 Este 12 Este 0.2 -- -- 67
2017-08-27 09:00:00 22.6 3 Sudeste 8 Nordeste 0 -- -- 65
2017-08-27 08:00:00 21.6 3 Este 7 Norte 0 -- -- 67
2017-08-27 07:00:00 21 4 Oeste 10 Oeste 0 -- -- 72
2017-08-27 06:00:00 21.7 8 Nordeste 27 Sudeste 1.6 -- -- 64
2017-08-27 05:00:00 25.5 3 Norte 17 Nordeste 0 -- -- 42
2017-08-27 04:00:00 27.4 12 Este 27 Nordeste 0 -- -- 35
2017-08-27 03:00:00 27.6 12 Nordeste 29 Nordeste 0 -- -- 36
2017-08-27 02:00:00 27.1 8 Norte 18 Sudeste 0 -- -- 35
2017-08-27 01:00:00 26.7 12 Sudeste 21 Este 0 -- -- 32
2017-08-27 00:00:00 24.7 4 Sudeste 12 Este 0 -- -- 37
2017-08-26 23:00:00 24.9 3 Sur 12 Nordeste 0 -- -- 37
2017-08-26 22:00:00 25.8 2 Nordeste 12 Norte 0 -- -- 35
2017-08-26 21:00:00 27.1 9 Norte 13 Norte 0 -- -- 34
2017-08-26 20:00:00 29.6 3 Norte 15 Este 0 -- -- 33
2017-08-26 19:00:00 31.6 8 Este 24 Sudeste 0 -- -- 27
2017-08-26 18:00:00 31 9 Este 21 Sudoeste 0 -- -- 26
2017-08-26 17:00:00 30.9 4 Noroeste 27 Oeste 0 -- -- 27
2017-08-26 16:00:00 31.3 14 Oeste 22 Oeste 0 -- -- 24
2017-08-26 15:00:00 31.9 11 Oeste 18 Noroeste 0 -- -- 23
2017-08-26 14:00:00 30.1 7 Noroeste 16 Oeste 0 -- -- 25
2017-08-26 13:00:00 29.3 9 Sur 18 Sur 0 -- -- 26
2017-08-26 12:00:00 29.7 12 Sudoeste 27 Sudoeste 0 -- -- 24
2017-08-26 11:00:00 22.9 8 Oeste 16 Oeste 0 -- -- 37
2017-08-26 10:00:00 22.1 4 Sur 10 Sudoeste 0 -- -- 41
2017-08-26 09:00:00 20.5 4 Este 7 Este 0 -- -- 49
2017-08-26 08:00:00 16.1 2 Noroeste 7 Nordeste 0 -- -- 52
2017-08-26 07:00:00 16.2 6 Este 10 Este 0 -- -- 56
2017-08-26 06:00:00 18.2 0 Calma 5 Oeste 0 -- -- 46
2017-08-26 05:00:00 18 3 Este 5 Norte 0 -- -- 49
2017-08-26 04:00:00 18.9 2 Este 6 Norte 0 -- -- 47
2017-08-26 03:00:00 18.6 2 Sudeste 10 Nordeste 0 -- -- 51
2017-08-26 02:00:00 20.5 3 Este 8 Norte 0 -- -- 41
2017-08-26 01:00:00 21.4 0 Calma 10 Oeste 0 -- -- 39
2017-08-26 00:00:00 25.2 6 Noroeste 10 Norte 0 -- -- 28
2017-08-25 23:00:00 23.9 5 Noroeste 9 Norte 0 -- -- 32
2017-08-25 22:00:00 27.2 6 Noroeste 10 Noroeste 0 -- -- 26
2017-08-25 21:00:00 30.2 5 Oeste 18 Oeste 0 -- -- 23
2017-08-25 20:00:00 34.4 9 Sudoeste 15 Sudoeste 0 -- -- 20
2017-08-25 19:00:00 33.8 7 Sudoeste 19 Oeste 0 -- -- 22
2017-08-25 18:00:00 35.3 9 Sudoeste 23 Sudoeste 0 -- -- 20
2017-08-25 17:00:00 34.2 10 Sudoeste 22 Sudoeste 0 -- -- 21
2017-08-25 16:00:00 34.1 10 Sudoeste 25 Oeste 0 -- -- 20
2017-08-25 15:00:00 32.8 10 Sudoeste 20 Oeste 0 -- -- 22
2017-08-25 14:00:00 31.7 9 Sudoeste 22 Sudoeste 0 -- -- 24
2017-08-25 13:00:00 31.2 4 Nordeste 10 Oeste 0 -- -- 26
2017-08-25 12:00:00 28.9 4 Este 13 Sudeste 0 -- -- 30
2017-08-25 11:00:00 25.3 6 Nordeste 14 Nordeste 0 -- -- 37
2017-08-25 10:00:00 22.2 8 Este 12 Este 0 -- -- 42
2017-08-25 09:00:00 17.3 3 Nordeste 4 Nordeste 0 -- -- 67
2017-08-25 08:00:00 15 0 Calma 7 Este 0 -- -- 64
2017-08-25 07:00:00 16.2 2 Norte 5 Nordeste 0 -- -- 59
2017-08-25 06:00:00 16.9 3 Este 4 Este 0 -- -- 60
2017-08-25 05:00:00 18.1 3 Nordeste 9 Nordeste 0 -- -- 56
2017-08-25 04:00:00 17.8 6 Nordeste 8 Nordeste 0 -- -- 53
2017-08-25 03:00:00 19 3 Este 6 Nordeste 0 -- -- 49
2017-08-25 02:00:00 20.3 3 Este 8 Nordeste 0 -- -- 44
2017-08-25 01:00:00 22.1 3 Sur 8 Noroeste 0 -- -- 42
2017-08-25 00:00:00 23.2 6 Oeste 22 Sur 0 -- -- 36
2017-08-24 23:00:00 24.3 5 Norte 9 Oeste 0 -- -- 33
2017-08-24 22:00:00 26 4 Norte 9 Noroeste 0 -- -- 29
2017-08-24 21:00:00 29.5 4 Noroeste 13 Sudoeste 0 -- -- 25
2017-08-24 20:00:00 33.4 9 Sudoeste 20 Sudoeste 0 -- -- 19
2017-08-24 19:00:00 34.2 13 Sudoeste 31 Oeste 0 -- -- 17
2017-08-24 18:00:00 34.8 16 Sudoeste 30 Oeste 0 -- -- 18
2017-08-24 17:00:00 35 23 Sudoeste 39 Oeste 0 -- -- 18
2017-08-24 16:00:00 34.3 14 Oeste 28 Sudoeste 0 -- -- 20
2017-08-24 15:00:00 33.4 17 Sudoeste 26 Sudoeste 0 -- -- 20
2017-08-24 14:00:00 32.9 13 Sudoeste 24 Sudoeste 0 -- -- 24
2017-08-24 13:00:00 31.7 11 Sudoeste 24 Sudoeste 0 -- -- 27
2017-08-24 12:00:00 29.2 9 Oeste 17 Oeste 0 -- -- 33
2017-08-24 11:00:00 26.2 3 Este 12 Este 0 -- -- 37
2017-08-24 10:00:00 22.3 8 Nordeste 13 Este 0 -- -- 50
2017-08-24 09:00:00 18.4 0 Calma 5 Sudeste 0 -- -- 61
2017-08-24 08:00:00 17 3 Este 6 Este 0 -- -- 61
2017-08-24 07:00:00 18.6 2 Nordeste 8 Oeste 0 -- -- 61
2017-08-24 06:00:00 18.8 0 Calma 11 Este 0 -- -- 56
2017-08-24 05:00:00 19.4 4 Este 9 Nordeste 0 -- -- 51
2017-08-24 04:00:00 20.2 6 Nordeste 11 Este 0 -- -- 46
2017-08-24 03:00:00 20.9 9 Este 12 Este 0 -- -- 44
2017-08-24 02:00:00 21.6 4 Este 8 Nordeste 0 -- -- 40
2017-08-24 01:00:00 22.7 5 Nordeste 8 Este 0 -- -- 38
2017-08-24 00:00:00 25.6 3 Sudoeste 9 Noroeste 0 -- -- 30